Time;durP1;ratioP1;P1;durP2;ratioP2;P2;SDS_P1;SDS_P2;PMS_P1;PMS_P2;Temp;Humidity;BMP_temperature;BMP_pressure;BME280_temperature;BME280_humidity;BME280_pressure;Samples;Min_cycle;Max_cycle;Signal;HPM_P1;HPM_P2
2022/10/29 00:01:46;;;;;;;15.60;4.10;;;12.50;99.90;;;;;;4920804;29;20054;-65
2022/10/29 00:04:12;;;;;;;20.02;4.55;;;12.50;99.90;;;;;;4903504;29;20123;-63
2022/10/29 00:06:38;;;;;;;15.15;4.00;;;12.50;99.90;;;;;;4910191;29;20082;-63
2022/10/29 00:09:04;;;;;;;12.15;4.00;;;12.50;99.90;;;;;;4919619;29;20040;-63
2022/10/29 00:11:30;;;;;;;18.55;4.50;;;12.50;99.90;;;;;;4920650;29;20739;-64
2022/10/29 00:13:58;;;;;;;17.60;4.00;;;12.50;99.90;;;;;;4918309;29;20082;-64
2022/10/29 00:16:29;;;;;;;16.67;4.57;;;12.50;99.90;;;;;;4901677;29;20974;-64
2022/10/29 00:18:55;;;;;;;16.98;4.57;;;12.50;99.90;;;;;;4923179;29;20052;-63
2022/10/29 00:21:23;;;;;;;14.75;3.72;;;12.40;99.90;;;;;;4919053;29;20134;-64
2022/10/29 00:23:50;;;;;;;17.13;3.88;;;12.40;99.90;;;;;;4923020;29;20035;-63
2022/10/29 00:26:16;;;;;;;15.50;3.92;;;12.50;99.90;;;;;;4900655;29;20468;-65
2022/10/29 00:28:42;;;;;;;16.60;4.38;;;12.50;99.90;;;;;;4910167;29;20407;-63
2022/10/29 00:31:14;;;;;;;11.63;3.78;;;12.40;99.90;;;;;;4922935;29;20047;-65
2022/10/29 00:33:39;;;;;;;19.08;4.32;;;12.40;99.90;;;;;;4907164;29;20079;-63
2022/10/29 00:36:08;;;;;;;17.67;4.00;;;12.40;99.90;;;;;;4926742;29;20035;-63
2022/10/29 00:38:34;;;;;;;13.00;3.72;;;12.40;99.90;;;;;;4927933;29;20043;-63
2022/10/29 00:41:01;;;;;;;17.90;4.07;;;12.40;99.90;;;;;;4905171;29;20078;-64
2022/10/29 00:43:26;;;;;;;14.50;3.90;;;12.40;99.90;;;;;;4917815;29;20035;-63
2022/10/29 00:46:00;;;;;;;11.75;3.13;;;12.30;99.90;;;;;;4916417;29;20054;-64
2022/10/29 00:48:28;;;;;;;23.92;4.10;;;12.30;99.90;;;;;;4920060;29;20032;-64
2022/10/29 00:50:55;;;;;;;19.23;4.75;;;12.30;99.90;;;;;;4917668;29;20032;-63
2022/10/29 00:53:25;;;;;;;18.65;4.45;;;12.30;99.90;;;;;;4919629;29;20119;-65
2022/10/29 00:55:51;;;;;;;;;;;12.20;99.90;;;;;;4916797;29;20420;-64
2022/10/29 00:58:17;;;;;;;20.40;4.20;;;12.20;99.90;;;;;;4919509;29;19930;-64
2022/10/29 01:00:43;;;;;;;22.08;4.63;;;12.20;99.90;;;;;;4915430;29;20087;-63
2022/10/29 01:03:09;;;;;;;17.92;3.92;;;12.10;99.90;;;;;;4901896;29;20170;-64
2022/10/29 01:05:35;;;;;;;14.57;3.80;;;12.10;99.90;;;;;;4920517;29;20448;-64
2022/10/29 01:08:02;;;;;;;15.35;4.47;;;12.00;99.90;;;;;;4919696;29;20746;-64
2022/10/29 01:10:42;;;;;;;15.57;3.45;;;12.00;99.90;;;;;;4922305;29;20038;-64
2022/10/29 01:13:24;;;;;;;15.88;3.70;;;12.00;99.90;;;;;;4925688;29;20031;-64
2022/10/29 01:16:05;;;;;;;14.57;3.63;;;11.90;99.90;;;;;;4919906;29;20040;-63
2022/10/29 01:18:46;;;;;;;18.10;3.67;;;11.90;99.90;;;;;;4921295;29;20091;-64
2022/10/29 01:21:36;;;;;;;15.07;3.88;;;11.90;99.90;;;;;;4903672;29;20071;-64
2022/10/29 01:24:16;;;;;;;;;;;11.90;99.90;;;;;;4927055;29;20611;-65
2022/10/29 01:27:12;;;;;;;12.35;3.67;;;11.80;99.90;;;;;;4900898;29;19927;-64
2022/10/29 01:30:03;;;;;;;10.55;2.78;;;11.80;99.90;;;;;;4922712;29;20038;-65
2022/10/29 01:32:44;;;;;;;13.07;2.88;;;11.70;99.90;;;;;;4920068;29;20059;-63
2022/10/29 01:35:17;;;;;;;14.02;3.47;;;11.70;99.90;;;;;;4924212;29;20138;-63
2022/10/29 01:38:06;;;;;;;12.88;3.65;;;11.60;99.90;;;;;;4898945;29;20514;-64
2022/10/29 01:41:01;;;;;;;8.40;2.80;;;11.60;99.90;;;;;;4918164;29;20055;-64
2022/10/29 01:43:33;;;;;;;15.25;3.22;;;11.50;99.90;;;;;;4903380;29;20048;-64
2022/10/29 01:46:03;;;;;;;12.10;3.17;;;11.50;99.90;;;;;;4892579;29;20044;-63
2022/10/29 01:48:34;;;;;;;11.88;3.08;;;11.50;99.90;;;;;;4933178;29;20396;-64
2022/10/29 01:51:05;;;;;;;11.43;3.03;;;11.50;99.90;;;;;;4932739;29;20696;-64
2022/10/29 01:53:34;;;;;;;11.27;2.92;;;11.40;99.90;;;;;;4929549;29;20044;-63
2022/10/29 01:56:00;;;;;;;7.22;2.55;;;11.40;99.90;;;;;;4920904;29;20044;-64
2022/10/29 01:58:25;;;;;;;10.52;2.50;;;11.30;99.90;;;;;;4923197;29;20056;-64
2022/10/29 02:00:54;;;;;;;30.70;3.63;;;11.20;99.90;;;;;;4919653;29;20055;-64
2022/10/29 02:03:46;;;;;;;17.02;3.25;;;11.20;99.90;;;;;;4921728;29;20036;-64
2022/10/29 02:06:33;;;;;;;7.45;2.45;;;11.10;99.90;;;;;;4919306;29;20039;-65
2022/10/29 02:09:01;;;;;;;13.75;2.13;;;11.10;99.90;;;;;;4929547;29;20047;-64
2022/10/29 02:11:32;;;;;;;10.65;2.17;;;11.10;99.90;;;;;;4921224;29;20566;-64
2022/10/29 02:14:05;;;;;;;6.60;2.55;;;11.10;99.90;;;;;;4919741;29;20135;-63
2022/10/29 02:16:31;;;;;;;5.68;2.00;;;11.10;99.90;;;;;;4903817;29;20044;-64
2022/10/29 02:18:59;;;;;;;4.57;1.85;;;11.00;99.90;;;;;;4918100;29;20090;-64
2022/10/29 02:21:25;;;;;;;5.13;1.70;;;11.00;99.90;;;;;;4921974;29;20052;-64
2022/10/29 02:23:50;;;;;;;3.90;1.40;;;10.90;99.90;;;;;;4907089;29;20129;-64
2022/10/29 02:26:16;;;;;;;5.28;1.88;;;10.90;99.90;;;;;;4917835;29;20031;-64
2022/10/29 02:28:42;;;;;;;71.97;4.53;;;10.80;99.90;;;;;;4921179;29;20491;-64
2022/10/29 02:31:08;;;;;;;21.98;2.20;;;10.70;99.90;;;;;;4909892;29;20051;-63
2022/10/29 02:33:33;;;;;;;19.55;2.60;;;10.60;99.90;;;;;;4913317;29;20035;-64
2022/10/29 02:35:59;;;;;;;10.95;3.80;;;10.60;99.90;;;;;;4912084;29;20058;-64
2022/10/29 02:38:24;;;;;;;45.38;4.05;;;10.50;99.90;;;;;;4913589;29;20577;-63
2022/10/29 02:40:50;;;;;;;8.60;2.92;;;10.50;99.90;;;;;;4928831;29;20040;-64
2022/10/29 02:43:16;;;;;;;25.35;3.60;;;10.40;99.90;;;;;;4930159;29;20091;-65
2022/10/29 02:45:41;;;;;;;5.65;3.13;;;10.30;99.90;;;;;;4928579;29;20039;-64
2022/10/29 02:48:07;;;;;;;42.72;4.65;;;10.30;99.90;;;;;;4929208;29;20111;-64
2022/10/29 02:50:32;;;;;;;5.43;2.50;;;10.30;99.90;;;;;;4911714;29;20102;-63
2022/10/29 02:52:58;;;;;;;4.40;2.60;;;10.30;99.90;;;;;;4929262;29;20464;-64
2022/10/29 02:55:23;;;;;;;7.50;2.97;;;10.30;99.90;;;;;;4924776;29;20056;-65
2022/10/29 02:57:49;;;;;;;4.80;2.80;;;10.20;99.90;;;;;;4932149;29;20511;-64
2022/10/29 03:00:15;;;;;;;5.47;2.55;;;10.10;99.90;;;;;;4910846;29;20051;-64
2022/10/29 03:02:40;;;;;;;6.43;2.67;;;10.10;99.90;;;;;;4928309;29;20039;-64
2022/10/29 03:05:06;;;;;;;6.43;3.08;;;10.10;99.90;;;;;;4929787;29;20472;-65
2022/10/29 03:07:36;;;;;;;9.52;3.58;;;10.10;99.90;;;;;;4928950;29;20480;-64
2022/10/29 03:10:06;;;;;;;6.18;2.83;;;10.10;99.90;;;;;;4930266;29;20040;-64
2022/10/29 03:12:33;;;;;;;10.88;3.80;;;10.10;99.90;;;;;;4926398;29;20056;-64
2022/10/29 03:14:58;;;;;;;7.43;3.33;;;10.00;99.90;;;;;;4927957;29;20086;-64
2022/10/29 03:17:24;;;;;;;8.18;3.20;;;10.10;99.90;;;;;;4898126;29;20499;-64
2022/10/29 03:19:50;;;;;;;11.15;4.38;;;10.10;99.90;;;;;;4929783;29;20447;-63
2022/10/29 03:22:16;;;;;;;13.63;5.45;;;10.10;99.90;;;;;;4928085;29;20087;-65
2022/10/29 03:24:41;;;;;;;13.30;5.75;;;10.10;99.90;;;;;;4927339;29;20070;-63
2022/10/29 03:27:07;;;;;;;14.10;6.75;;;10.20;99.90;;;;;;4927903;29;20044;-64
2022/10/29 03:29:32;;;;;;;18.52;7.28;;;10.30;99.90;;;;;;4913106;29;20488;-64
2022/10/29 03:31:58;;;;;;;16.23;7.13;;;10.40;99.90;;;;;;4919890;29;20047;-64
2022/10/29 03:34:24;;;;;;;20.20;8.00;;;10.40;99.90;;;;;;4927691;29;20543;-64
2022/10/29 03:36:49;;;;;;;16.80;7.28;;;10.50;99.90;;;;;;4907162;29;20517;-64
2022/10/29 03:39:15;;;;;;;9.77;4.90;;;10.60;99.90;;;;;;4910435;29;20032;-64
2022/10/29 03:41:40;;;;;;;5.95;3.63;;;10.60;99.90;;;;;;4930187;29;20044;-64
2022/10/29 03:44:06;;;;;;;6.10;2.67;;;10.60;99.90;;;;;;4925992;29;20040;-64
2022/10/29 03:46:32;;;;;;;6.05;3.80;;;10.70;99.90;;;;;;4926927;29;20040;-64
2022/10/29 03:48:57;;;;;;;12.02;5.63;;;10.70;99.90;;;;;;4925212;29;20052;-64
2022/10/29 03:51:23;;;;;;;13.60;6.15;;;10.60;99.90;;;;;;4925984;29;20345;-65
2022/10/29 03:53:48;;;;;;;13.60;6.13;;;10.70;99.90;;;;;;4928972;29;20062;-64
2022/10/29 03:56:14;;;;;;;12.05;6.00;;;10.70;99.90;;;;;;4930728;29;20043;-64
2022/10/29 03:58:39;;;;;;;13.43;6.28;;;10.80;99.90;;;;;;4927015;29;20054;-63
2022/10/29 04:01:07;;;;;;;14.43;6.25;;;10.90;99.90;;;;;;4928512;29;20059;-64
2022/10/29 04:03:35;;;;;;;14.60;7.22;;;10.90;99.90;;;;;;4928837;29;20130;-64
2022/10/29 04:06:07;;;;;;;14.93;7.38;;;11.00;99.90;;;;;;4930821;29;20068;-64
2022/10/29 04:08:32;;;;;;;20.75;8.40;;;11.00;99.90;;;;;;4930213;29;20047;-64
2022/10/29 04:10:58;;;;;;;12.27;6.32;;;11.10;99.90;;;;;;4910793;29;20413;-64
2022/10/29 04:13:23;;;;;;;11.00;5.45;;;11.20;99.90;;;;;;4929603;29;20158;-64
2022/10/29 04:15:53;;;;;;;9.52;4.93;;;11.20;99.90;;;;;;4930483;29;20039;-65
2022/10/29 04:18:19;;;;;;;8.77;4.32;;;11.20;99.90;;;;;;4914075;29;20476;-64
2022/10/29 04:20:44;;;;;;;12.18;5.80;;;11.30;99.90;;;;;;4930415;29;20028;-64
2022/10/29 04:23:10;;;;;;;10.20;5.53;;;11.30;99.90;;;;;;4923605;29;20118;-65
2022/10/29 04:25:35;;;;;;;10.63;5.10;;;11.30;99.90;;;;;;4920794;29;20130;-65
2022/10/29 04:28:01;;;;;;;15.90;6.88;;;11.30;99.90;;;;;;4920521;29;20040;-64
2022/10/29 04:30:27;;;;;;;20.45;8.57;;;11.30;99.90;;;;;;4918513;29;20039;-64
2022/10/29 04:32:56;;;;;;;20.85;8.93;;;11.40;99.90;;;;;;4923955;29;20040;-64
2022/10/29 04:35:21;;;;;;;23.23;8.90;;;11.40;99.90;;;;;;4921198;29;20044;-64
2022/10/29 04:37:47;;;;;;;24.33;9.00;;;11.40;99.90;;;;;;4925132;29;20050;-65
2022/10/29 04:40:12;;;;;;;24.30;9.30;;;11.50;99.90;;;;;;4920528;29;20051;-64
2022/10/29 04:42:39;;;;;;;27.67;9.77;;;11.50;99.90;;;;;;4899306;29;20122;-66
2022/10/29 04:45:06;;;;;;;25.70;10.02;;;11.60;99.90;;;;;;4922171;29;20990;-65
2022/10/29 04:47:32;;;;;;;27.70;10.38;;;11.60;99.90;;;;;;4927770;29;20036;-64
2022/10/29 04:49:57;;;;;;;29.25;9.55;;;11.60;99.90;;;;;;4929302;29;20173;-65
2022/10/29 04:52:23;;;;;;;28.40;8.93;;;11.60;99.90;;;;;;4892079;29;20051;-65
2022/10/29 04:54:49;;;;;;;24.58;7.38;;;11.60;99.90;;;;;;4921851;29;20035;-64
2022/10/29 04:57:14;;;;;;;22.00;8.27;;;11.60;99.90;;;;;;4905726;29;20153;-64
2022/10/29 04:59:40;;;;;;;28.75;9.00;;;11.50;99.90;;;;;;4906746;29;20059;-64
2022/10/29 05:02:05;;;;;;;31.50;9.18;;;11.60;99.90;;;;;;4905841;29;20052;-64
2022/10/29 05:04:31;;;;;;;43.20;11.50;;;11.60;99.90;;;;;;4906734;29;20469;-64
2022/10/29 05:06:56;;;;;;;25.40;10.18;;;11.60;99.90;;;;;;4904068;29;20044;-65
2022/10/29 05:09:22;;;;;;;31.20;10.27;;;11.60;99.90;;;;;;4904869;29;20067;-65
2022/10/29 05:11:47;;;;;;;27.55;9.93;;;11.60;99.90;;;;;;4912948;29;20062;-64
2022/10/29 05:14:13;;;;;;;47.03;11.13;;;11.60;99.90;;;;;;4903554;29;20056;-64
2022/10/29 05:16:38;;;;;;;28.42;10.70;;;11.70;99.90;;;;;;4912517;29;20048;-65
2022/10/29 05:19:05;;;;;;;30.75;10.82;;;11.70;99.90;;;;;;4907841;29;20048;-64
2022/10/29 05:21:31;;;;;;;37.20;10.52;;;11.70;99.90;;;;;;4909546;29;20123;-65
2022/10/29 05:23:56;;;;;;;33.15;10.07;;;11.70;99.90;;;;;;4910896;29;20075;-64
2022/10/29 05:26:22;;;;;;;29.30;9.13;;;11.70;99.90;;;;;;4904252;29;20032;-66
2022/10/29 05:28:49;;;;;;;36.58;10.45;;;11.70;99.90;;;;;;4912403;29;20520;-64
2022/10/29 05:31:15;;;;;;;26.52;9.82;;;11.70;99.90;;;;;;4912214;29;20471;-64
2022/10/29 05:33:40;;;;;;;35.90;10.52;;;11.60;99.90;;;;;;4910495;29;20050;-65
2022/10/29 05:36:06;;;;;;;27.67;10.50;;;11.60;99.90;;;;;;4906453;29;20040;-65
2022/10/29 05:38:32;;;;;;;31.00;11.48;;;11.60;99.90;;;;;;4913263;29;20372;-64
2022/10/29 05:40:58;;;;;;;37.95;12.23;;;11.60;99.90;;;;;;4912157;29;20113;-64
2022/10/29 05:43:24;;;;;;;39.05;11.25;;;11.70;99.90;;;;;;4916069;29;20381;-64
2022/10/29 05:45:49;;;;;;;47.08;13.50;;;11.70;99.90;;;;;;4908566;29;20100;-64
2022/10/29 05:48:15;;;;;;;47.85;12.88;;;11.70;99.90;;;;;;4915761;29;20511;-64
2022/10/29 05:50:40;;;;;;;40.97;14.02;;;11.70;99.90;;;;;;4915104;29;20611;-65
2022/10/29 05:53:10;;;;;;;50.75;12.75;;;11.70;99.90;;;;;;4914468;29;20496;-65
2022/10/29 05:55:35;;;;;;;40.37;12.90;;;11.70;99.90;;;;;;4911088;29;20393;-65
2022/10/29 05:58:04;;;;;;;42.10;13.35;;;11.70;99.90;;;;;;4924603;29;20063;-64
2022/10/29 06:00:32;;;;;;;37.35;12.48;;;11.70;99.90;;;;;;4931791;29;20102;-65
2022/10/29 06:02:57;;;;;;;42.30;12.98;;;11.70;99.90;;;;;;4931355;29;20051;-65
2022/10/29 06:05:23;;;;;;;45.20;12.80;;;11.70;99.90;;;;;;4935131;29;20411;-64
2022/10/29 06:07:57;;;;;;;51.50;14.32;;;11.70;99.90;;;;;;4929307;29;20043;-64
2022/10/29 06:10:24;;;;;;;57.65;14.45;;;11.70;99.90;;;;;;4916745;29;20059;-64
2022/10/29 06:12:49;;;;;;;31.60;12.70;;;11.70;99.90;;;;;;4931534;29;20039;-65
2022/10/29 06:15:15;;;;;;;32.20;13.13;;;11.70;99.90;;;;;;4927672;29;20042;-65
2022/10/29 06:17:42;;;;;;;50.65;14.25;;;11.70;99.90;;;;;;4930294;29;20108;-64
2022/10/29 06:20:08;;;;;;;49.92;14.45;;;11.70;99.90;;;;;;4908327;29;20106;-64
2022/10/29 06:22:34;;;;;;;49.17;14.18;;;11.80;99.90;;;;;;4932397;29;20108;-64
2022/10/29 06:25:00;;;;;;;40.05;14.07;;;11.80;99.90;;;;;;4933568;29;20616;-64
2022/10/29 06:27:26;;;;;;;40.10;13.27;;;11.80;99.90;;;;;;4930524;29;20122;-64
2022/10/29 06:29:51;;;;;;;44.63;14.38;;;11.80;99.90;;;;;;4933860;29;20040;-65
2022/10/29 06:32:17;;;;;;;58.85;14.75;;;11.80;99.90;;;;;;4933036;29;20428;-64
2022/10/29 06:34:42;;;;;;;50.53;14.48;;;11.90;99.90;;;;;;4917236;29;20119;-64
2022/10/29 06:37:08;;;;;;;55.88;14.95;;;11.90;99.90;;;;;;4910313;29;20039;-64
2022/10/29 06:39:33;;;;;;;59.97;15.88;;;11.80;99.90;;;;;;4932948;29;20054;-64
2022/10/29 06:41:59;;;;;;;63.67;16.00;;;11.90;99.90;;;;;;4926718;29;20047;-65
2022/10/29 06:44:24;;;;;;;60.60;16.90;;;11.90;99.90;;;;;;4928203;29;20174;-65
2022/10/29 06:46:50;;;;;;;49.95;15.35;;;11.90;99.90;;;;;;4928903;29;20123;-63
2022/10/29 06:49:15;;;;;;;53.58;15.05;;;11.90;99.90;;;;;;4914696;29;20491;-65
2022/10/29 06:51:41;;;;;;;55.72;15.45;;;11.90;99.90;;;;;;4916191;29;20035;-64
2022/10/29 06:54:07;;;;;;;56.38;15.13;;;11.90;99.90;;;;;;4918733;29;20175;-64
2022/10/29 06:56:33;;;;;;;80.90;18.35;;;11.90;99.90;;;;;;4927711;29;20071;-64
2022/10/29 06:58:59;;;;;;;87.15;17.13;;;11.90;99.90;;;;;;4932780;29;20126;-64
2022/10/29 07:01:27;;;;;;;58.22;16.00;;;12.00;99.90;;;;;;4915064;29;20551;-65
2022/10/29 07:03:53;;;;;;;47.80;16.35;;;12.00;99.90;;;;;;4935906;29;20444;-64
2022/10/29 07:06:18;;;;;;;78.00;18.58;;;12.10;99.90;;;;;;4932606;29;20086;-63
2022/10/29 07:08:44;;;;;;;49.30;16.85;;;12.10;99.90;;;;;;4927930;29;20040;-64
2022/10/29 07:11:09;;;;;;;52.72;18.25;;;12.10;99.90;;;;;;4934285;29;20127;-64
2022/10/29 07:13:35;;;;;;;59.15;18.33;;;12.20;99.90;;;;;;4935113;29;20071;-63
2022/10/29 07:16:00;;;;;;;50.88;16.90;;;12.20;99.90;;;;;;4927925;29;20051;-65
2022/10/29 07:18:26;;;;;;;46.08;18.40;;;12.30;99.90;;;;;;4933264;29;20135;-65
2022/10/29 07:20:52;;;;;;;39.70;16.88;;;12.30;99.90;;;;;;4913934;29;20126;-64
2022/10/29 07:23:17;;;;;;;44.22;17.13;;;12.30;99.90;;;;;;4928770;29;20039;-64
2022/10/29 07:25:43;;;;;;;42.92;16.98;;;12.40;99.90;;;;;;4932399;29;20437;-64
2022/10/29 07:28:19;;;;;;;50.92;17.67;;;12.40;99.90;;;;;;4927020;29;20503;-63
2022/10/29 07:30:49;;;;;;;64.82;18.08;;;12.40;99.90;;;;;;4933594;29;20619;-64
2022/10/29 07:33:16;;;;;;;50.42;17.10;;;12.40;99.90;;;;;;4918423;29;20551;-64
2022/10/29 07:35:43;;;;;;;50.33;16.90;;;12.40;99.90;;;;;;4933892;29;20119;-65
2022/10/29 07:38:10;;;;;;;52.67;17.60;;;12.40;99.90;;;;;;4932309;29;20432;-65
2022/10/29 07:40:36;;;;;;;61.40;19.35;;;12.50;99.90;;;;;;4929031;29;20118;-66
2022/10/29 07:43:01;;;;;;;57.88;18.98;;;12.50;99.90;;;;;;4929754;29;20480;-64
2022/10/29 07:45:27;;;;;;;61.15;19.02;;;12.50;99.90;;;;;;4927749;29;20036;-65
2022/10/29 07:48:02;;;;;;;55.05;18.67;;;12.50;99.90;;;;;;4932515;29;20048;-65
2022/10/29 07:50:28;;;;;;;46.17;16.23;;;12.50;99.90;;;;;;4932987;29;20044;-65
2022/10/29 07:52:54;;;;;;;47.47;19.08;;;12.60;99.90;;;;;;4918755;29;20515;-64
2022/10/29 07:55:20;;;;;;;51.72;17.98;;;12.60;99.90;;;;;;4934365;29;20090;-65
2022/10/29 07:57:46;;;;;;;51.55;19.13;;;12.60;99.90;;;;;;4926494;29;20142;-63
2022/10/29 08:00:13;;;;;;;53.53;20.05;;;12.60;99.90;;;;;;4913802;29;20118;-65
2022/10/29 08:02:41;;;;;;;67.70;21.02;;;12.70;99.90;;;;;;4925138;29;20126;-65
2022/10/29 08:05:07;;;;;;;69.65;21.00;;;12.70;99.90;;;;;;4933323;29;20040;-64
2022/10/29 08:07:32;;;;;;;59.55;20.55;;;12.70;99.90;;;;;;4931532;29;20043;-64
2022/10/29 08:09:58;;;;;;;49.65;19.33;;;12.80;99.90;;;;;;4934412;29;20369;-65
2022/10/29 08:12:23;;;;;;;49.67;19.40;;;12.80;99.90;;;;;;4931060;29;20123;-64
2022/10/29 08:14:49;;;;;;;50.95;21.70;;;12.80;99.90;;;;;;4930797;29;20876;-65
2022/10/29 08:17:14;;;;;;;62.83;22.02;;;12.80;99.90;;;;;;4928073;29;20055;-65
2022/10/29 08:19:40;;;;;;;49.38;20.02;;;12.90;99.90;;;;;;4908876;29;20144;-65
2022/10/29 08:22:05;;;;;;;55.40;21.60;;;12.90;99.90;;;;;;4904455;29;20147;-64
2022/10/29 08:24:31;;;;;;;63.35;21.55;;;13.00;99.90;;;;;;4920229;29;20036;-65
2022/10/29 08:26:56;;;;;;;46.40;20.00;;;13.00;99.90;;;;;;4919101;29;20052;-64
2022/10/29 08:29:22;;;;;;;46.65;19.30;;;13.00;99.90;;;;;;4896205;29;20048;-65
2022/10/29 08:31:47;;;;;;;47.53;19.40;;;13.00;99.90;;;;;;4900078;29;20051;-65
2022/10/29 08:34:13;;;;;;;53.63;21.65;;;13.00;99.90;;;;;;4900593;29;20525;-65
2022/10/29 08:36:40;;;;;;;45.95;19.92;;;13.10;99.90;;;;;;4927355;29;20122;-65
2022/10/29 08:39:05;;;;;;;42.88;18.98;;;13.20;99.90;;;;;;4929332;29;20043;-64
2022/10/29 08:41:46;;;;;;;45.88;19.02;;;13.20;99.90;;;;;;4928550;29;20674;-64
2022/10/29 08:44:17;;;;;;;;;;;13.20;99.90;;;;;;4928541;29;20042;-64
2022/10/29 08:46:51;;;;;;;48.42;20.80;;;13.20;99.90;;;;;;4911911;29;20008;-65
2022/10/29 08:49:20;;;;;;;47.45;21.70;;;13.20;99.90;;;;;;4909682;29;20047;-65
2022/10/29 08:52:12;;;;;;;42.67;19.55;;;13.20;99.90;;;;;;4922339;29;20075;-64
2022/10/29 08:54:42;;;;;;;49.90;21.38;;;13.20;99.90;;;;;;4929150;29;20056;-64
2022/10/29 08:57:14;;;;;;;45.25;21.15;;;13.30;99.90;;;;;;4918834;29;20043;-64
2022/10/29 08:59:59;;;;;;;45.53;20.88;;;13.40;99.90;;;;;;4922686;29;20055;-64
2022/10/29 09:02:25;;;;;;;46.58;21.00;;;13.50;99.90;;;;;;4932958;29;20087;-64
2022/10/29 09:04:50;;;;;;;49.85;22.55;;;13.60;99.90;;;;;;4932808;29;20063;-65
2022/10/29 09:07:36;;;;;;;42.17;20.13;;;13.70;99.90;;;;;;4896954;29;20094;-64
2022/10/29 09:10:09;;;;;;;47.08;20.05;;;13.80;99.90;;;;;;4930492;29;20039;-64
2022/10/29 09:13:05;;;;;;;47.05;20.85;;;13.80;99.90;;;;;;4932652;29;20048;-64
2022/10/29 09:15:43;;;;;;;39.08;19.20;;;13.80;99.90;;;;;;4905860;29;20052;-64
2022/10/29 09:18:46;;;;;;;39.80;19.48;;;13.90;99.90;;;;;;4931325;29;20055;-64
2022/10/29 09:21:39;;;;;;;44.00;20.38;;;13.90;99.90;;;;;;4931445;29;20118;-64
2022/10/29 09:24:13;;;;;;;37.28;18.52;;;14.00;99.90;;;;;;4930028;29;20552;-64
2022/10/29 09:26:53;;;;;;;37.65;20.05;;;14.10;99.90;;;;;;4926845;29;20044;-64
2022/10/29 09:29:40;;;;;;;42.85;17.90;;;14.00;99.90;;;;;;4918155;29;20063;-63
2022/10/29 09:32:12;;;;;;;38.85;19.25;;;14.00;99.90;;;;;;4929686;29;20044;-64
2022/10/29 09:34:46;;;;;;;37.38;17.40;;;14.00;99.90;;;;;;4935756;29;20046;-65
2022/10/29 09:37:18;;;;;;;39.45;18.63;;;14.10;99.90;;;;;;4921768;29;20396;-65
2022/10/29 09:39:46;;;;;;;39.60;17.50;;;14.10;99.90;;;;;;4912570;29;20173;-63
2022/10/29 09:42:18;;;;;;;35.45;17.35;;;14.10;99.90;;;;;;4903064;29;20047;-65
2022/10/29 09:44:56;;;;;;;35.90;16.88;;;14.10;99.90;;;;;;4921027;29;20056;-64
2022/10/29 09:47:49;;;;;;;36.25;17.58;;;14.20;99.90;;;;;;4895350;29;20039;-65
2022/10/29 09:50:40;;;;;;;35.30;17.70;;;14.30;99.90;;;;;;4924117;29;20035;-64
2022/10/29 09:53:07;;;;;;;33.33;15.98;;;14.40;99.90;;;;;;4908654;29;20071;-63
2022/10/29 09:55:42;;;;;;;38.47;17.45;;;14.50;99.90;;;;;;4935632;29;20078;-64
2022/10/29 09:58:25;;;;;;;39.40;17.00;;;14.60;99.90;;;;;;4932876;29;20051;-63
2022/10/29 10:00:52;;;;;;;36.25;18.27;;;14.70;99.90;;;;;;4929063;29;20035;-63
2022/10/29 10:03:27;;;;;;;34.42;18.33;;;14.80;99.90;;;;;;4935601;29;20039;-64
2022/10/29 10:06:02;;;;;;;33.38;17.92;;;14.90;99.90;;;;;;4936068;29;20488;-64
2022/10/29 10:08:28;;;;;;;32.08;18.02;;;15.00;99.90;;;;;;4919671;29;20043;-64
2022/10/29 10:10:58;;;;;;;30.45;16.88;;;15.00;99.90;;;;;;4933919;29;20050;-64
2022/10/29 10:13:27;;;;;;;31.17;16.83;;;15.10;99.90;;;;;;4928766;29;20124;-63
2022/10/29 10:15:58;;;;;;;34.95;16.90;;;15.20;99.90;;;;;;4933770;29;20156;-65
2022/10/29 10:18:31;;;;;;;33.50;16.90;;;15.20;99.90;;;;;;4935004;29;20592;-64
2022/10/29 10:21:23;;;;;;;27.20;15.40;;;15.30;99.90;;;;;;4928323;29;20073;-64
2022/10/29 10:23:51;;;;;;;32.00;17.00;;;15.40;99.90;;;;;;4936202;29;20119;-65
2022/10/29 10:26:40;;;;;;;32.92;17.45;;;15.50;99.90;;;;;;4932722;29;20858;-64
2022/10/29 10:29:14;;;;;;;34.42;16.45;;;15.50;99.90;;;;;;4930445;29;20043;-64
2022/10/29 10:32:01;;;;;;;35.60;17.40;;;15.60;99.90;;;;;;4929545;29;20126;-64
2022/10/29 10:34:37;;;;;;;34.28;15.60;;;15.60;99.90;;;;;;4920112;29;20058;-64
2022/10/29 10:37:08;;;;;;;35.03;16.67;;;15.70;99.90;;;;;;4932081;29;20392;-64
2022/10/29 10:39:38;;;;;;;32.00;15.88;;;15.80;99.90;;;;;;4934663;29;20050;-64
2022/10/29 10:42:06;;;;;;;;;;;15.80;99.90;;;;;;4933347;29;20106;-64
2022/10/29 10:44:32;;;;;;;34.55;16.20;;;15.90;99.90;;;;;;4934366;29;19926;-64
2022/10/29 10:47:03;;;;;;;32.58;15.68;;;16.00;99.90;;;;;;4932362;29;20047;-64
2022/10/29 10:49:35;;;;;;;31.08;16.08;;;16.10;99.90;;;;;;4934659;29;20094;-65
2022/10/29 10:52:04;;;;;;;25.05;14.10;;;16.20;99.90;;;;;;4928629;29;20062;-64
2022/10/29 10:54:40;;;;;;;28.80;15.00;;;16.20;99.90;;;;;;4918804;29;20070;-64
2022/10/29 10:57:12;;;;;;;24.17;13.45;;;16.40;99.90;;;;;;4930699;29;20349;-64
2022/10/29 10:59:43;;;;;;;21.98;13.55;;;16.50;99.90;;;;;;4930187;29;20395;-66
2022/10/29 11:02:29;;;;;;;27.60;15.15;;;16.50;99.90;;;;;;4927568;29;20477;-64
2022/10/29 11:05:07;;;;;;;23.50;14.20;;;16.60;99.90;;;;;;4918536;29;20135;-64
2022/10/29 11:07:36;;;;;;;22.95;14.52;;;16.70;99.90;;;;;;4905383;29;20543;-65
2022/10/29 11:10:05;;;;;;;27.00;14.45;;;16.70;99.90;;;;;;4920355;29;20095;-64
2022/10/29 11:12:39;;;;;;;31.65;14.80;;;16.70;99.90;;;;;;4932864;29;20036;-64
2022/10/29 11:15:20;;;;;;;28.73;14.73;;;16.70;99.90;;;;;;4927078;29;20079;-65
2022/10/29 11:17:54;;;;;;;27.13;15.10;;;16.80;99.90;;;;;;4927452;29;20059;-64
2022/10/29 11:20:24;;;;;;;26.85;15.38;;;16.90;99.90;;;;;;4899411;29;20051;-65
2022/10/29 11:23:01;;;;;;;28.48;14.63;;;17.00;99.90;;;;;;4929928;29;20071;-64
2022/10/29 11:25:35;;;;;;;25.48;14.38;;;17.20;99.90;;;;;;4933091;29;20193;-64
2022/10/29 11:28:38;;;;;;;36.13;14.43;;;17.30;99.90;;;;;;4927856;29;20043;-65
2022/10/29 11:31:17;;;;;;;25.00;13.35;;;17.60;99.90;;;;;;4922426;29;20056;-64
2022/10/29 11:34:02;;;;;;;28.17;12.70;;;17.70;99.90;;;;;;4915568;29;20565;-65
2022/10/29 11:36:33;;;;;;;28.08;13.10;;;17.70;99.90;;;;;;4913208;29;20388;-65
2022/10/29 11:39:07;;;;;;;27.92;13.38;;;17.70;99.90;;;;;;4934892;29;20071;-64
2022/10/29 11:41:42;;;;;;;26.58;13.00;;;17.70;99.90;;;;;;4931545;29;20036;-65
2022/10/29 11:44:12;;;;;;;21.60;12.45;;;17.80;99.90;;;;;;4919837;29;20055;-64
2022/10/29 11:46:52;;;;;;;22.15;11.57;;;17.90;99.90;;;;;;4914029;29;20122;-64
2022/10/29 11:49:20;;;;;;;26.50;11.60;;;17.90;99.90;;;;;;4928498;29;20039;-64
2022/10/29 11:52:01;;;;;;;27.80;11.75;;;17.80;99.90;;;;;;4926359;29;20059;-64
2022/10/29 11:54:29;;;;;;;19.55;10.95;;;17.80;99.90;;;;;;4912565;29;20438;-65
2022/10/29 11:57:02;;;;;;;23.05;11.65;;;17.80;99.90;;;;;;4927243;29;20055;-65
2022/10/29 11:59:39;;;;;;;21.30;11.98;;;17.90;99.90;;;;;;4930173;29;20048;-65
2022/10/29 12:02:25;;;;;;;20.92;11.45;;;18.00;99.90;;;;;;4929451;29;20119;-66
2022/10/29 12:05:00;;;;;;;24.55;11.55;;;18.10;99.90;;;;;;4929478;29;20043;-64
2022/10/29 12:07:52;;;;;;;24.10;10.65;;;18.30;99.90;;;;;;4929217;29;20039;-65
2022/10/29 12:10:36;;;;;;;26.42;11.02;;;18.30;99.90;;;;;;4933661;29;20357;-65
2022/10/29 12:13:23;;;;;;;20.58;10.38;;;18.20;99.90;;;;;;4927150;29;20051;-64
2022/10/29 12:30:44;;;;;;;24.83;12.85;;;18.50;99.90;;;;;;4923437;29;20052;-64
2022/10/29 12:33:21;;;;;;;24.63;12.55;;;18.40;99.90;;;;;;4932255;29;20067;-65
2022/10/29 12:36:25;;;;;;;28.90;13.55;;;18.50;99.90;;;;;;4924451;29;20484;-63
2022/10/29 12:38:54;;;;;;;31.75;13.98;;;18.50;99.90;;;;;;4910930;29;20040;-65
2022/10/29 12:41:24;;;;;;;27.27;13.33;;;18.50;99.90;;;;;;4927213;29;20136;-64
2022/10/29 12:43:53;;;;;;;26.23;13.20;;;18.60;99.90;;;;;;4929974;29;20032;-66
2022/10/29 12:46:27;;;;;;;23.52;13.88;;;18.60;99.90;;;;;;4929955;29;20036;-65
2022/10/29 12:49:00;;;;;;;31.08;14.32;;;18.60;99.90;;;;;;4933388;29;20028;-65
2022/10/29 12:51:31;;;;;;;33.80;14.95;;;18.60;99.90;;;;;;4919395;29;20119;-65
2022/10/29 12:54:22;;;;;;;26.92;13.52;;;18.60;99.90;;;;;;4926805;29;20106;-66
2022/10/29 12:56:47;;;;;;;29.05;13.40;;;18.60;99.90;;;;;;4906803;29;20106;-65
2022/10/29 12:59:22;;;;;;;24.83;12.98;;;18.50;99.90;;;;;;4927175;29;20055;-65
2022/10/29 13:01:49;;;;;;;25.35;12.45;;;18.50;99.90;;;;;;4918703;29;20052;-65
2022/10/29 13:04:32;;;;;;;24.17;13.70;;;18.50;99.90;;;;;;4933792;29;20044;-66